Hovedside
METAR-TAF:

METAR-TAF

Lufthavner :

Gibraltar lufthavn

Gibraltar, Gibraltar

breddegrad: 36-09N, lengdegrad: 005-21W, høyde over havet: 5 m

Gjeldene værobservasjon

Denne rapporten ble laget for 5 minutter siden, klokken 15:50 UTC
Vind 12 kt fra Øst
Temperatur 22°C
Luftfuktighet 69%
Trykk 1019 hPa
Sikt 10 km eller mer
Få skyer i en høyde av 1200 ft

METAR: LXGB 191550Z 09012KT 9999 FEW012 22/16 Q1019 NOSIG

Tid: 17:55 (15:55 UTC)

Varsel

Denne rapporten ble laget for 2 timer og 5 minutter siden, klokken 13:50 UTC
Varsel gyldig fra 19. klokken 15 UTC til 19. klokken 22 UTC
Vind 14 kt fra Øst
Sikt 10 km eller mer
Få skyer i en høyde av 1200 ft
Midlertidig
fra 19. klokken 15 UTC til 19. klokken 22 UTC
Vind 16 kt fra Øst med vindkast opp mot 26 kt

TAF: LXGB 191350Z 1915/1922 09014KT 9999 FEW012 TEMPO 1915/1922 10016G26KT

Værobservasjoner og værvarsel for over 4000 flyplasser (METAR- og TAF-rapporter).

Tilgjengelige stasjoner er representert av de røde og gule prikkene på kartet.

Hold musepekeren over prikken for å se navnet på stasjonen.

Klikk så for å se værobservasjoner og -varsler.

For å forandre kartet kan du klikke på den grønne knappen med svart kryss for å zoome inn, på den grønne knappen med strek for å zoome ut, eller på de grønne pilene for å se tilstøtende kart.


METAR-TAF: